Aérodrome :
LOGIN :

S'inscrire | Disclaimer

   EN    FR    IT 

 










Légende :    VFR   VFR Marginal   IFR   IFR Intensif   IFR Très Intensif
Visi : 
Plafond : 
>= 8 km
>= 3000ft
5 à 8 km
1000 à 3000 ft
1500m à 5 km
500 à 1000 ft
800 à 1500m
200 à 500 ft
< 800m
< 200 ft
Symboles :   Orages  Brouillard  Fortes neiges  Fortes précipitations  Vent > 20 kt
SIGMETs :   Divers  Orages  Givrage  Turbulence  Onde Orograph.  Cendres Volcan.







- Altitude de l'aérodrome : 200 ft


EBBL - Klein Brogel AB

DERNIER METAR :
  • 232125Z AUTO 22014KT 9999 OVC010/// 10/08 Q1018 GRN

METARs EXPIRÉS :
  • 232055Z AUTO 22014KT 9999 OVC010/// 10/08 Q1019 GRN
  • 232025Z AUTO 22014KT 9999 OVC009/// 10/08 Q1019 GRN
  • 231955Z 21013KT 9999 -DZ BKN009 10/08 Q1019 GRN GRN TEMPO YLO
  • 231925Z 22013KT 9999 -DZ BKN010 10/08 Q1019 GRN GRN TEMPO YLO
  • 231855Z 22013KT 9999 -DZ BKN010 09/08 Q1019 GRN GRN TEMPO YLO

TAF TAF EBBL
Valide du 23 à 19h jusqu'au 24 à 07h UTC


231542Z 2319/2407 21015G25KT 9999 -RA FEW010 BKN020
TEMPO 2319/2321 6000 RA SCT010 BKN015
TEMPO 2321/2323 22015KT 3000 -RADZ SCT005 BKN010
BECMG 2404/2306 22015KT 2500 BR SCT006 BKN015
Pas de NOTAMs connus pour ce terrain.



MET'MAP, la Météo Aéronautique d'un coup d'oeil ! - Copyright ORBIFLY Décembre 2007 - Disclaimer

ORBIFLY MET'MAP TEAM :

Programmation & Développement : Alexandra Zaïnal
Conception & Développement : Baudouin d'Aumeries
Co-Programmation & Développement : Marc-Olivier Méhu
Soutien technique & logistique : Manuel Goepfert

Contact : metmap@orbifly.com




SOURCES & CREDITS :

   NOAA